Time;durP1;ratioP1;P1;durP2;ratioP2;P2;SDS_P1;SDS_P2;PMS_P1;PMS_P2;Temp;Humidity;BMP_temperature;BMP_pressure;BME280_temperature;BME280_humidity;BME280_pressure;Samples;Min_cycle;Max_cycle;Signal;HPM_P1;HPM_P2
2023/08/30 00:00:51;;;;;;;98.70;69.78;;;27.00;99.90;;;;;;5033618;28;20021;-66
2023/08/30 00:03:18;;;;;;;97.70;65.90;;;27.10;99.90;;;;;;5034814;28;20283;-66
2023/08/30 00:05:44;;;;;;;95.47;65.90;;;27.10;99.90;;;;;;5034890;28;20030;-66
2023/08/30 00:08:13;;;;;;;101.32;67.63;;;27.10;99.90;;;;;;5034489;28;20034;-66
2023/08/30 00:10:42;;;;;;;96.85;63.47;;;27.10;99.90;;;;;;5034281;28;20049;-66
2023/08/30 00:13:09;;;;;;;103.05;63.60;;;27.10;99.90;;;;;;5034524;28;20482;-66
2023/08/30 00:15:35;;;;;;;90.13;65.47;;;27.10;99.90;;;;;;5034563;28;20025;-64
2023/08/30 00:18:02;;;;;;;100.35;64.32;;;27.10;99.90;;;;;;5034472;28;20029;-65
2023/08/30 00:20:28;;;;;;;89.57;60.63;;;27.10;99.90;;;;;;5034590;28;20104;-66
2023/08/30 00:22:55;;;;;;;88.55;60.28;;;27.20;99.90;;;;;;5034522;28;20032;-67
2023/08/30 00:25:22;;;;;;;80.78;56.97;;;27.30;99.90;;;;;;5034283;28;20033;-66
2023/08/30 00:27:48;;;;;;;89.05;59.55;;;27.30;99.90;;;;;;5034407;28;20036;-66
2023/08/30 00:30:15;;;;;;;84.15;59.50;;;27.40;99.90;;;;;;5034377;28;20018;-66
2023/08/30 00:32:41;;;;;;;83.75;57.08;;;27.50;99.90;;;;;;5034204;28;20103;-67
2023/08/30 00:35:08;;;;;;;79.65;57.05;;;27.50;99.90;;;;;;5034296;28;20030;-67
2023/08/30 00:37:34;;;;;;;86.38;57.10;;;27.50;99.90;;;;;;5034219;28;20502;-67
2023/08/30 00:40:01;;;;;;;82.70;58.28;;;27.60;99.90;;;;;;5033954;28;20041;-66
2023/08/30 00:42:28;;;;;;;83.03;56.42;;;27.60;99.90;;;;;;5034132;28;20026;-67
2023/08/30 00:44:54;;;;;;;86.78;60.13;;;27.60;99.90;;;;;;5033859;28;20486;-68
2023/08/30 00:47:21;;;;;;;87.03;55.75;;;27.70;99.90;;;;;;5033890;28;20039;-66
2023/08/30 00:49:48;;;;;;;86.07;57.53;;;27.80;99.90;;;;;;5033780;28;20029;-68
2023/08/30 00:52:16;;;;;;;85.38;57.17;;;27.80;99.90;;;;;;5033937;28;20096;-65
2023/08/30 00:54:42;;;;;;;83.07;56.78;;;27.90;99.90;;;;;;5033871;28;20025;-66
2023/08/30 00:57:09;;;;;;;78.82;53.42;;;27.90;99.90;;;;;;5033753;28;20022;-67
2023/08/30 00:59:36;;;;;;;67.70;49.30;;;27.90;99.90;;;;;;5033851;28;20397;-67
2023/08/30 01:02:04;;;;;;;71.95;52.25;;;27.90;99.90;;;;;;5033777;28;20490;-68
2023/08/30 01:04:30;;;;;;;72.68;52.42;;;27.90;99.90;;;;;;5033420;28;20067;-67
2023/08/30 01:06:58;;;;;;;71.50;51.80;;;28.00;99.90;;;;;;5033663;28;20052;-66
2023/08/30 01:09:25;;;;;;;78.30;50.97;;;28.00;99.90;;;;;;5033587;28;20025;-66
2023/08/30 01:12:00;;;;;;;75.68;51.08;;;28.10;99.90;;;;;;5032858;28;20045;-66
2023/08/30 01:14:45;;;;;;;72.55;49.38;;;28.10;99.90;;;;;;5033398;28;20564;-66
2023/08/30 01:17:15;;;;;;;74.80;51.40;;;28.10;99.90;;;;;;5033388;28;20025;-65
2023/08/30 01:20:18;;;;;;;73.72;49.53;;;28.20;99.90;;;;;;5033325;28;20112;-66
2023/08/30 01:23:15;;;;;;;73.93;46.75;;;28.30;99.90;;;;;;5033276;28;20040;-67
2023/08/30 01:26:08;;;;;;;72.18;46.47;;;28.40;99.90;;;;;;5033306;28;20034;-66
2023/08/30 01:28:37;;;;;;;67.07;46.90;;;28.50;99.90;;;;;;5023048;28;20045;-66
2023/08/30 01:31:06;;;;;;;61.33;41.75;;;28.60;99.90;;;;;;5033125;28;20273;-65
2023/08/30 01:33:34;;;;;;;57.65;40.38;;;28.70;99.90;;;;;;5033223;28;20021;-66
2023/08/30 01:36:03;;;;;;;56.97;39.95;;;28.70;99.90;;;;;;5032917;28;20104;-66
2023/08/30 01:38:31;;;;;;;59.33;37.88;;;28.80;99.90;;;;;;5032987;28;20036;-65
2023/08/30 01:41:00;;;;;;;60.90;39.92;;;28.90;99.90;;;;;;5033098;28;20478;-66
2023/08/30 01:43:29;;;;;;;54.20;40.42;;;28.80;99.90;;;;;;5032709;28;20112;-66
2023/08/30 01:45:57;;;;;;;62.30;38.40;;;28.80;99.90;;;;;;5032982;28;20363;-66
2023/08/30 01:48:25;;;;;;;57.60;37.53;;;28.90;99.90;;;;;;5032853;28;20557;-66
2023/08/30 01:50:58;;;;;;;50.50;35.17;;;29.00;99.90;;;;;;5032715;28;20049;-68
2023/08/30 01:53:26;;;;;;;52.10;37.70;;;29.00;99.90;;;;;;5032872;28;20021;-66
2023/08/30 01:55:53;;;;;;;46.72;35.15;;;29.10;99.90;;;;;;5032610;28;20033;-65
2023/08/30 01:58:20;;;;;;;48.63;33.35;;;29.20;99.90;;;;;;5032727;28;20109;-66
2023/08/30 02:00:46;;;;;;;54.22;33.75;;;29.30;99.90;;;;;;5032723;28;20049;-66
2023/08/30 02:03:14;;;;;;;44.95;31.63;;;29.40;99.90;;;;;;5032497;28;20104;-66
2023/08/30 02:06:08;;;;;;;50.60;32.30;;;29.40;99.90;;;;;;5032508;28;20044;-66
2023/08/30 02:08:48;;;;;;;43.20;31.83;;;29.50;99.90;;;;;;5032373;28;20425;-64
2023/08/30 02:11:20;;;;;;;44.17;30.38;;;29.50;99.90;;;;;;5032360;28;20052;-65
2023/08/30 02:13:46;;;;;;;39.65;29.70;;;29.60;99.90;;;;;;5032500;28;20021;-66
2023/08/30 02:16:14;;;;;;;47.17;32.95;;;29.60;99.90;;;;;;5032638;28;20045;-66
2023/08/30 02:18:41;;;;;;;51.22;34.28;;;29.70;99.90;;;;;;5032347;28;20033;-66
2023/08/30 02:21:08;;;;;;;49.10;33.83;;;29.80;99.90;;;;;;5032316;28;20095;-66
2023/08/30 02:23:34;;;;;;;42.67;30.98;;;29.90;99.90;;;;;;5031669;28;20536;-69
2023/08/30 02:26:03;;;;;;;43.20;30.58;;;29.90;99.90;;;;;;5032405;28;20029;-66
2023/08/30 02:28:29;;;;;;;47.60;30.73;;;30.00;99.90;;;;;;5032104;28;20029;-64
2023/08/30 02:30:56;;;;;;;36.97;26.40;;;30.00;99.90;;;;;;5032846;28;20021;-67
2023/08/30 02:33:22;;;;;;;37.28;27.02;;;30.10;99.90;;;;;;5033105;28;20368;-66
2023/08/30 02:35:49;;;;;;;41.45;27.30;;;30.10;99.90;;;;;;5033071;28;20026;-66
2023/08/30 02:38:16;;;;;;;36.80;24.98;;;30.20;99.90;;;;;;5033072;28;20471;-66
2023/08/30 02:40:42;;;;;;;36.60;26.20;;;30.20;99.90;;;;;;5032980;28;20056;-66
2023/08/30 02:43:10;;;;;;;36.63;24.08;;;30.30;99.90;;;;;;5033152;28;20075;-67
2023/08/30 02:45:36;;;;;;;52.53;33.03;;;30.30;99.90;;;;;;5033629;28;20371;-66
2023/08/30 02:48:03;;;;;;;41.50;28.75;;;30.40;99.90;;;;;;5033067;28;20021;-66
2023/08/30 02:50:30;;;;;;;41.15;27.60;;;30.50;99.90;;;;;;5033117;28;20025;-66
2023/08/30 02:52:56;;;;;;;40.55;26.45;;;30.40;99.90;;;;;;5032817;28;20033;-67
2023/08/30 02:55:23;;;;;;;34.35;25.50;;;30.50;99.90;;;;;;5032948;28;20091;-67
2023/08/30 02:58:08;;;;;;;40.40;25.20;;;30.50;99.90;;;;;;5032908;28;20053;-67
2023/08/30 03:00:34;;;;;;;31.48;24.65;;;30.50;99.90;;;;;;5032557;28;20076;-67
2023/08/30 03:03:01;;;;;;;34.63;23.48;;;30.50;99.90;;;;;;5032915;28;20024;-66
2023/08/30 03:05:27;;;;;;;30.77;24.17;;;30.60;99.90;;;;;;5032905;28;20031;-66
2023/08/30 03:07:54;;;;;;;46.28;26.20;;;30.70;99.90;;;;;;5032675;28;20108;-66
2023/08/30 03:10:21;;;;;;;33.80;24.15;;;30.70;99.90;;;;;;5032498;28;20030;-66
2023/08/30 03:12:47;;;;;;;42.53;27.95;;;30.70;99.90;;;;;;5032572;28;20101;-66
2023/08/30 03:15:14;;;;;;;47.60;28.25;;;30.70;99.90;;;;;;5032845;28;20168;-66
2023/08/30 03:17:40;;;;;;;46.78;29.33;;;30.70;99.90;;;;;;5032566;28;20475;-66
2023/08/30 03:20:07;;;;;;;46.72;32.55;;;30.70;99.90;;;;;;5032524;28;20108;-64
2023/08/30 03:22:34;;;;;;;53.40;35.90;;;30.80;99.90;;;;;;5032610;28;20552;-65
2023/08/30 03:25:03;;;;;;;42.08;30.13;;;30.80;99.90;;;;;;5032683;28;20026;-64
2023/08/30 03:27:30;;;;;;;54.38;33.88;;;30.80;99.90;;;;;;5032669;28;20383;-65
2023/08/30 03:29:56;;;;;;;58.05;35.15;;;30.80;99.90;;;;;;5032676;28;20018;-65
2023/08/30 03:32:23;;;;;;;40.83;29.27;;;30.80;99.90;;;;;;5032499;28;20112;-65
2023/08/30 03:34:50;;;;;;;41.95;26.77;;;30.90;99.90;;;;;;5033713;28;20186;-65
2023/08/30 03:37:17;;;;;;;40.28;27.60;;;31.00;99.90;;;;;;5036040;28;20478;-65
2023/08/30 03:39:44;;;;;;;40.65;25.77;;;31.10;99.90;;;;;;5034006;28;20029;-67
2023/08/30 03:42:10;;;;;;;38.78;25.33;;;31.20;99.90;;;;;;5017058;28;20041;-66
2023/08/30 03:44:38;;;;;;;42.75;27.90;;;31.20;99.90;;;;;;5035897;28;20037;-64
2023/08/30 03:47:05;;;;;;;36.30;25.17;;;31.30;99.90;;;;;;5036055;28;20032;-65
2023/08/30 03:49:32;;;;;;;41.28;28.17;;;31.40;99.90;;;;;;5035917;28;20402;-66
2023/08/30 03:51:58;;;;;;;39.95;24.83;;;31.30;99.90;;;;;;5035786;28;20025;-65
2023/08/30 03:54:25;;;;;;;38.20;26.85;;;31.30;99.90;;;;;;5035784;28;20029;-65
2023/08/30 03:56:51;;;;;;;38.00;26.42;;;31.30;99.90;;;;;;5035491;28;20480;-65
2023/08/30 03:59:18;;;;;;;32.38;23.88;;;31.30;99.90;;;;;;5035607;28;20033;-65
2023/08/30 04:01:45;;;;;;;40.15;24.52;;;31.30;99.90;;;;;;5035757;28;20509;-64
2023/08/30 04:04:12;;;;;;;43.20;24.20;;;31.40;99.90;;;;;;5035507;28;20025;-65
2023/08/30 04:06:38;;;;;;;37.15;22.90;;;31.40;99.90;;;;;;5035558;28;20033;-65
2023/08/30 04:09:05;;;;;;;27.65;20.70;;;31.50;99.90;;;;;;5035567;28;20064;-65
2023/08/30 04:45:09;;;;;;;23.42;17.08;;;31.80;99.90;;;;;;5084008;28;20439;-65
2023/08/30 04:47:36;;;;;;;22.60;14.90;;;31.80;99.90;;;;;;5070794;28;20421;-63
2023/08/30 04:50:03;;;;;;;23.27;15.20;;;31.90;99.90;;;;;;5068376;28;20108;-63
2023/08/30 04:52:29;;;;;;;28.08;17.20;;;31.90;99.90;;;;;;5066057;28;20508;-65
2023/08/30 04:54:55;;;;;;;29.80;18.33;;;32.10;99.90;;;;;;5064846;28;20024;-64
2023/08/30 04:57:22;;;;;;;22.40;17.20;;;32.30;99.90;;;;;;5069476;28;20027;-63
2023/08/30 04:59:48;;;;;;;19.85;14.85;;;32.40;99.90;;;;;;5069974;28;20021;-64
2023/08/30 05:02:15;;;;;;;20.77;13.88;;;32.50;99.90;;;;;;5069676;28;20507;-64
2023/08/30 05:04:42;;;;;;;66.75;48.78;;;32.60;99.90;;;;;;5069300;28;20029;-65
2023/08/30 05:07:08;;;;;;;44.03;31.95;;;32.60;99.90;;;;;;5069211;28;20029;-63
2023/08/30 05:09:35;;;;;;;26.05;16.40;;;32.80;99.90;;;;;;5069393;28;20013;-62
2023/08/30 05:12:01;;;;;;;20.33;16.63;;;32.80;99.00;;;;;;5069950;28;20025;-62
2023/08/30 05:14:28;;;;;;;39.90;28.77;;;32.80;98.70;;;;;;5070093;28;20029;-63
2023/08/30 05:16:54;;;;;;;26.20;16.70;;;32.70;99.00;;;;;;5056499;28;20029;-62
2023/08/30 05:19:21;;;;;;;24.13;15.68;;;32.60;99.90;;;;;;5050039;28;20013;-63
2023/08/30 05:21:51;;;;;;;20.23;13.93;;;32.50;99.90;;;;;;5052410;28;20064;-64
2023/08/30 05:24:18;;;;;;;26.67;14.52;;;32.50;99.00;;;;;;5049165;28;20025;-64
2023/08/30 05:26:46;;;;;;;18.40;12.75;;;32.60;99.00;;;;;;5039016;28;20032;-63
2023/08/30 05:29:15;;;;;;;19.92;13.75;;;32.70;99.00;;;;;;5049144;28;20013;-65
2023/08/30 05:31:42;;;;;;;28.75;14.45;;;32.80;98.90;;;;;;5048991;28;20022;-65
2023/08/30 05:34:08;;;;;;;23.98;14.93;;;33.00;98.80;;;;;;5036770;28;20059;-65
2023/08/30 05:36:35;;;;;;;18.08;14.70;;;33.00;97.60;;;;;;5037492;28;20394;-64
2023/08/30 05:39:02;;;;;;;18.95;13.57;;;33.10;98.40;;;;;;5046700;28;20030;-64
2023/08/30 05:41:30;;;;;;;21.17;13.95;;;33.10;98.40;;;;;;5048440;28;20065;-64
2023/08/30 05:43:56;;;;;;;19.10;14.40;;;33.20;98.30;;;;;;5049391;28;20041;-64
2023/08/30 05:46:23;;;;;;;25.38;13.88;;;33.20;98.20;;;;;;5049225;28;20060;-64
2023/08/30 05:48:50;;;;;;;24.98;15.68;;;33.20;98.30;;;;;;5029804;28;20018;-64
2023/08/30 05:51:16;;;;;;;24.90;14.57;;;33.20;97.90;;;;;;5029741;28;20033;-64
2023/08/30 05:53:43;;;;;;;20.85;15.00;;;33.20;97.90;;;;;;5029515;28;20029;-64
2023/08/30 05:56:09;;;;;;;21.65;16.35;;;33.20;96.60;;;;;;5017992;28;20034;-64
2023/08/30 05:58:37;;;;;;;24.08;15.90;;;33.10;95.70;;;;;;5016343;28;20037;-63
2023/08/30 06:01:06;;;;;;;29.58;15.55;;;33.00;96.90;;;;;;5016192;28;20535;-67
2023/08/30 06:03:33;;;;;;;22.15;14.77;;;33.00;96.20;;;;;;5016286;28;20033;-64
2023/08/30 06:05:59;;;;;;;18.83;13.88;;;33.00;95.70;;;;;;5016201;28;20379;-63
2023/08/30 06:08:26;;;;;;;20.98;14.35;;;33.00;96.00;;;;;;5016062;28;20026;-66
2023/08/30 06:10:52;;;;;;;18.20;13.55;;;33.10;96.50;;;;;;5016184;28;20026;-65
2023/08/30 06:13:19;;;;;;;20.98;15.05;;;33.20;96.50;;;;;;5016920;28;20050;-65
2023/08/30 06:15:49;;;;;;;22.40;15.13;;;33.30;96.50;;;;;;5016207;28;20091;-67
2023/08/30 06:18:16;;;;;;;43.42;30.15;;;33.40;95.80;;;;;;5015947;28;20105;-65
2023/08/30 06:20:43;;;;;;;22.20;15.88;;;33.40;95.90;;;;;;5015821;28;20030;-65
2023/08/30 06:23:10;;;;;;;21.30;14.73;;;33.50;95.90;;;;;;5015594;28;20017;-64
2023/08/30 06:25:36;;;;;;;19.08;15.13;;;33.40;95.70;;;;;;5015754;28;20036;-64
2023/08/30 06:28:03;;;;;;;18.13;14.50;;;33.40;95.60;;;;;;5015790;28;20072;-65
2023/08/30 06:30:30;;;;;;;23.08;14.15;;;33.50;96.30;;;;;;5015621;28;20030;-69
2023/08/30 06:32:57;;;;;;;21.05;15.23;;;33.50;95.90;;;;;;5015831;28;20026;-65
2023/08/30 06:35:24;;;;;;;23.98;15.27;;;33.50;96.00;;;;;;5015618;28;20022;-65
2023/08/30 06:37:50;;;;;;;21.27;15.13;;;33.60;95.80;;;;;;5015464;28;20386;-65
2023/08/30 06:40:17;;;;;;;21.77;15.43;;;33.60;95.00;;;;;;5015476;28;20026;-65
2023/08/30 06:42:44;;;;;;;19.63;14.75;;;33.60;95.90;;;;;;5015241;28;20030;-65
2023/08/30 06:45:11;;;;;;;20.73;15.70;;;33.60;95.90;;;;;;5015363;28;20494;-66
2023/08/30 06:47:37;;;;;;;21.92;15.05;;;33.60;96.30;;;;;;5015357;28;20034;-66
2023/08/30 06:50:04;;;;;;;23.27;15.25;;;33.70;95.80;;;;;;5015264;28;20068;-66
2023/08/30 06:52:30;;;;;;;21.15;15.57;;;33.60;95.70;;;;;;5015288;28;20472;-65
2023/08/30 06:54:57;;;;;;;19.33;15.30;;;33.60;95.90;;;;;;5015133;28;20030;-65
2023/08/30 06:57:23;;;;;;;20.50;15.13;;;33.60;95.30;;;;;;5015327;28;20033;-64
2023/08/30 06:59:50;;;;;;;17.95;14.27;;;33.50;95.70;;;;;;5015345;28;20022;-64
2023/08/30 07:02:16;;;;;;;20.10;14.85;;;33.50;95.10;;;;;;5014931;28;20088;-65
2023/08/30 07:04:43;;;;;;;19.38;14.85;;;33.60;95.40;;;;;;5014973;28;20108;-67
2023/08/30 07:07:12;;;;;;;20.23;15.07;;;33.70;95.10;;;;;;5014096;28;20101;-68
2023/08/30 07:09:38;;;;;;;20.75;15.52;;;33.70;95.00;;;;;;5014790;28;20022;-67
2023/08/30 07:12:05;;;;;;;23.27;15.82;;;33.70;95.10;;;;;;5015129;28;20022;-67
2023/08/30 07:14:31;;;;;;;22.10;15.63;;;33.60;94.50;;;;;;5015005;28;20029;-67
2023/08/30 07:16:59;;;;;;;21.33;16.27;;;33.60;95.00;;;;;;5014652;28;20033;-68
2023/08/30 07:19:26;;;;;;;20.73;14.73;;;33.60;94.50;;;;;;5014777;28;20415;-67
2023/08/30 07:21:52;;;;;;;21.95;15.88;;;33.60;94.60;;;;;;5014803;28;20026;-68
2023/08/30 07:24:19;;;;;;;20.70;14.40;;;33.70;94.80;;;;;;5014531;28;20026;-67
2023/08/30 07:26:45;;;;;;;18.25;14.73;;;33.90;95.20;;;;;;5014612;28;20396;-67
2023/08/30 07:29:12;;;;;;;24.88;16.75;;;33.90;95.30;;;;;;5014638;28;20049;-67
2023/08/30 07:31:41;;;;;;;18.90;15.27;;;33.80;95.10;;;;;;5014414;28;20088;-70
2023/08/30 07:34:07;;;;;;;30.10;17.30;;;33.80;94.80;;;;;;5014605;28;20030;-67
2023/08/30 07:36:34;;;;;;;20.88;14.63;;;33.80;94.90;;;;;;5014520;28;20057;-68
2023/08/30 07:39:01;;;;;;;20.13;15.80;;;33.80;94.70;;;;;;5014312;28;20026;-66
2023/08/30 07:41:28;;;;;;;24.40;16.08;;;33.70;94.30;;;;;;5014438;28;20112;-66
2023/08/30 07:43:54;;;;;;;20.17;15.90;;;33.70;94.40;;;;;;5014159;28;20045;-67
2023/08/30 07:46:21;;;;;;;26.00;16.10;;;33.70;94.10;;;;;;5014546;28;20021;-70
2023/08/30 07:48:48;;;;;;;21.77;15.88;;;33.70;94.50;;;;;;5034215;28;20028;-72
2023/08/30 07:51:14;;;;;;;30.13;18.65;;;33.80;94.30;;;;;;5033852;28;20040;-72
2023/08/30 07:53:41;;;;;;;24.13;17.42;;;33.70;94.40;;;;;;5033759;28;20059;-70
2023/08/30 07:56:08;;;;;;;28.52;17.23;;;33.60;93.80;;;;;;5034027;28;20029;-69
2023/08/30 07:58:35;;;;;;;28.77;16.50;;;33.50;94.20;;;;;;5034064;28;20064;-70
2023/08/30 08:01:01;;;;;;;22.98;16.83;;;33.60;94.40;;;;;;5033634;28;20071;-68
2023/08/30 08:03:28;;;;;;;26.80;15.05;;;33.50;94.30;;;;;;5034138;28;20056;-69
2023/08/30 08:05:54;;;;;;;22.38;15.27;;;33.50;94.00;;;;;;5033972;28;20029;-69
2023/08/30 08:08:21;;;;;;;25.58;16.08;;;33.50;94.10;;;;;;5033589;28;20467;-71
2023/08/30 08:10:47;;;;;;;29.92;15.85;;;33.40;94.10;;;;;;5033567;28;20060;-72
2023/08/30 08:13:14;;;;;;;21.58;16.95;;;33.50;94.10;;;;;;5033593;28;20025;-69
2023/08/30 08:15:40;;;;;;;24.65;17.60;;;33.60;94.50;;;;;;5033414;28;20108;-67
2023/08/30 08:18:07;;;;;;;24.50;17.10;;;33.60;94.20;;;;;;5033008;28;20056;-67
2023/08/30 08:20:34;;;;;;;25.48;17.02;;;33.70;94.10;;;;;;5033791;28;20022;-68
2023/08/30 08:23:00;;;;;;;30.90;17.23;;;33.80;94.10;;;;;;5033504;28;20037;-68
2023/08/30 08:25:27;;;;;;;25.52;17.70;;;33.80;94.10;;;;;;5033125;28;20033;-67
2023/08/30 08:27:53;;;;;;;26.38;18.38;;;33.80;93.80;;;;;;5033498;28;20025;-67
2023/08/30 08:30:23;;;;;;;23.90;17.20;;;33.90;93.50;;;;;;5033495;28;20561;-67
2023/08/30 08:32:49;;;;;;;26.58;17.40;;;33.90;93.70;;;;;;5033234;28;20026;-66
2023/08/30 08:35:16;;;;;;;21.08;14.73;;;33.90;93.70;;;;;;5033505;28;20052;-66
2023/08/30 08:37:42;;;;;;;23.17;16.48;;;33.90;92.80;;;;;;5033421;28;20536;-66
2023/08/30 08:40:10;;;;;;;20.15;14.57;;;33.90;92.80;;;;;;5033449;28;20101;-65
2023/08/30 08:42:37;;;;;;;25.13;15.43;;;33.90;93.40;;;;;;5033265;28;20036;-65
2023/08/30 08:45:04;;;;;;;31.70;17.60;;;34.00;93.60;;;;;;5032871;28;20042;-65
2023/08/30 08:47:31;;;;;;;35.50;24.63;;;34.00;92.20;;;;;;5033203;28;20022;-67
2023/08/30 08:50:03;;;;;;;43.15;31.40;;;34.10;93.10;;;;;;5033213;28;20132;-67
2023/08/30 08:52:30;;;;;;;57.03;39.30;;;34.20;93.00;;;;;;5033153;28;20100;-67
2023/08/30 08:54:59;;;;;;;39.35;25.63;;;34.10;92.10;;;;;;5033233;28;20025;-68
2023/08/30 08:57:29;;;;;;;46.35;32.40;;;34.10;92.20;;;;;;5026317;28;20026;-65
2023/08/30 08:59:56;;;;;;;34.17;22.70;;;34.10;91.50;;;;;;5033090;28;20033;-64
2023/08/30 09:02:24;;;;;;;19.40;13.30;;;34.00;91.00;;;;;;5022378;28;20030;-67
2023/08/30 09:04:53;;;;;;;23.05;16.65;;;34.00;91.10;;;;;;5030731;28;20099;-66
2023/08/30 09:07:19;;;;;;;89.15;63.83;;;33.90;91.30;;;;;;5033559;28;20017;-65
2023/08/30 09:09:47;;;;;;;42.53;26.50;;;33.90;91.10;;;;;;5032146;28;20025;-67
2023/08/30 09:12:14;;;;;;;57.67;40.53;;;33.80;90.60;;;;;;5022509;28;20104;-67
2023/08/30 09:14:40;;;;;;;49.22;33.65;;;33.80;90.40;;;;;;5032051;28;20072;-66
2023/08/30 09:17:07;;;;;;;23.23;15.00;;;33.80;90.90;;;;;;5031895;28;20048;-67
2023/08/30 09:19:33;;;;;;;24.52;15.13;;;33.80;90.10;;;;;;5032958;28;20470;-67
2023/08/30 09:22:00;;;;;;;28.27;16.08;;;33.70;90.70;;;;;;5033058;28;20025;-65
2023/08/30 09:24:37;;;;;;;26.70;16.92;;;33.60;90.20;;;;;;5030300;28;20048;-66
2023/08/30 09:27:04;;;;;;;26.67;15.73;;;33.60;91.00;;;;;;5028769;28;20033;-66
2023/08/30 09:29:31;;;;;;;27.02;15.57;;;33.60;91.10;;;;;;5032088;28;20479;-66
2023/08/30 09:31:58;;;;;;;34.58;15.70;;;33.60;91.30;;;;;;5035012;28;20052;-65
2023/08/30 09:34:27;;;;;;;28.55;16.17;;;33.60;91.00;;;;;;5036056;28;20509;-67
2023/08/30 09:36:55;;;;;;;21.80;12.38;;;33.50;90.70;;;;;;5036342;28;20033;-66
2023/08/30 09:39:21;;;;;;;28.73;14.90;;;33.40;90.90;;;;;;5034726;28;20061;-66
2023/08/30 09:41:50;;;;;;;22.10;14.85;;;33.40;91.60;;;;;;5036461;28;20439;-67
2023/08/30 09:44:19;;;;;;;28.27;15.68;;;33.40;92.10;;;;;;5035943;28;20076;-66
2023/08/30 09:46:49;;;;;;;29.08;16.15;;;33.40;90.80;;;;;;5036318;28;20029;-66
2023/08/30 09:49:18;;;;;;;349.10;205.30;;;33.30;90.50;;;;;;5036288;28;20028;-66
2023/08/30 09:51:48;;;;;;;486.30;292.90;;;33.30;91.40;;;;;;5035928;28;20198;-67
2023/08/30 09:54:19;;;;;;;503.83;241.43;;;33.20;90.90;;;;;;5036144;28;20505;-67
2023/08/30 09:56:46;;;;;;;739.40;372.45;;;33.20;91.20;;;;;;5036119;28;20026;-64
2023/08/30 09:59:15;;;;;;;115.68;54.20;;;33.20;92.30;;;;;;5036222;28;20049;-65
2023/08/30 10:01:43;;;;;;;128.20;56.03;;;33.20;91.10;;;;;;5036255;28;20040;-67
2023/08/30 10:04:11;;;;;;;139.13;50.65;;;33.10;91.30;;;;;;5035750;28;20026;-66
2023/08/30 10:06:39;;;;;;;131.40;47.65;;;33.10;91.70;;;;;;5035893;28;20029;-65
2023/08/30 10:09:10;;;;;;;320.85;146.77;;;33.10;90.30;;;;;;5035910;28;20022;-65
2023/08/30 10:11:38;;;;;;;185.43;68.32;;;33.00;91.30;;;;;;5035750;28;20026;-64
2023/08/30 10:14:06;;;;;;;191.07;81.32;;;33.00;91.00;;;;;;5035812;28;20036;-65
2023/08/30 10:16:54;;;;;;;110.60;52.88;;;33.00;91.40;;;;;;5035636;28;20028;-65
2023/08/30 10:19:30;;;;;;;91.93;42.88;;;32.90;92.00;;;;;;5035538;28;20021;-65
2023/08/30 10:22:15;;;;;;;94.22;53.78;;;32.80;92.50;;;;;;5031265;28;20036;-65
2023/08/30 10:24:54;;;;;;;153.43;100.40;;;32.80;92.80;;;;;;5026468;28;20029;-64
2023/08/30 10:27:22;;;;;;;69.47;40.63;;;32.80;93.20;;;;;;5027707;28;20056;-64
2023/08/30 10:29:51;;;;;;;55.38;31.30;;;32.70;93.10;;;;;;5035561;28;20029;-65
2023/08/30 10:32:21;;;;;;;56.58;35.67;;;32.70;93.70;;;;;;5035446;28;20013;-66
2023/08/30 10:34:50;;;;;;;76.57;37.20;;;32.60;93.50;;;;;;5035227;28;20028;-66
2023/08/30 10:37:22;;;;;;;108.63;58.50;;;32.50;94.20;;;;;;5035266;28;20037;-65
2023/08/30 10:39:49;;;;;;;;;;;32.50;94.50;;;;;;5035392;28;20105;-67
2023/08/30 10:42:16;;;;;;;65.35;36.72;;;32.50;94.50;;;;;;5034738;28;19909;-68
2023/08/30 10:45:07;;;;;;;203.95;127.72;;;32.40;94.80;;;;;;5032734;28;20129;-66
2023/08/30 10:47:37;;;;;;;115.65;75.72;;;32.40;95.20;;;;;;5023957;28;20375;-64
2023/08/30 10:50:10;;;;;;;89.15;50.03;;;32.30;95.50;;;;;;5018877;28;20029;-66
2023/08/30 10:52:36;;;;;;;53.58;29.88;;;32.30;95.70;;;;;;5030003;28;20472;-64
2023/08/30 10:55:07;;;;;;;126.13;66.30;;;32.20;95.10;;;;;;5034298;28;20030;-67
2023/08/30 10:57:34;;;;;;;90.90;50.07;;;32.10;95.40;;;;;;5032734;28;20093;-64
2023/08/30 11:00:20;;;;;;;76.72;41.22;;;32.10;95.80;;;;;;5026587;28;20514;-65
2023/08/30 11:02:49;;;;;;;61.38;34.92;;;32.10;96.20;;;;;;5033447;28;20033;-66
2023/08/30 11:05:17;;;;;;;59.10;31.80;;;32.00;96.20;;;;;;5031605;28;20079;-65
2023/08/30 11:07:45;;;;;;;53.60;27.63;;;31.90;96.70;;;;;;5034058;28;20195;-65
2023/08/30 11:10:12;;;;;;;61.47;33.78;;;31.80;96.70;;;;;;5033372;28;20483;-64
2023/08/30 11:12:42;;;;;;;69.00;38.65;;;31.90;96.90;;;;;;5032033;28;20029;-64
2023/08/30 11:15:15;;;;;;;55.92;33.10;;;31.90;96.90;;;;;;5033343;28;20075;-64
2023/08/30 11:17:43;;;;;;;62.47;31.92;;;31.80;97.00;;;;;;5023751;28;20486;-64
2023/08/30 11:20:11;;;;;;;49.28;29.23;;;31.80;97.10;;;;;;5032912;28;20122;-64
2023/08/30 11:22:44;;;;;;;58.38;29.13;;;31.70;97.40;;;;;;5028839;28;20322;-64
2023/08/30 11:25:13;;;;;;;55.67;30.17;;;31.70;97.00;;;;;;5033051;28;20052;-64
2023/08/30 11:27:40;;;;;;;55.03;28.17;;;31.70;97.60;;;;;;5033331;28;20032;-64
2023/08/30 11:30:08;;;;;;;60.10;29.13;;;31.60;97.80;;;;;;5033428;28;20018;-65
2023/08/30 11:32:45;;;;;;;51.72;28.55;;;31.70;97.80;;;;;;5031540;28;20063;-64
2023/08/30 11:35:12;;;;;;;42.17;24.40;;;31.60;98.30;;;;;;5033316;28;20470;-64
2023/08/30 11:37:40;;;;;;;58.33;28.23;;;31.50;98.20;;;;;;5033233;28;20025;-63
2023/08/30 11:40:07;;;;;;;51.70;30.35;;;31.50;98.60;;;;;;5025343;28;20021;-64
2023/08/30 11:42:33;;;;;;;56.45;30.98;;;31.50;98.50;;;;;;5032643;28;20053;-63
2023/08/30 11:45:00;;;;;;;48.22;26.02;;;31.50;98.60;;;;;;5032949;28;20041;-64
2023/08/30 11:47:27;;;;;;;46.35;25.65;;;31.40;98.90;;;;;;5025945;28;20040;-63
2023/08/30 11:49:56;;;;;;;58.40;32.25;;;31.30;99.20;;;;;;5033173;28;20096;-65
2023/08/30 11:52:24;;;;;;;128.52;83.32;;;31.30;99.50;;;;;;5032596;28;20029;-64
2023/08/30 11:54:51;;;;;;;60.55;35.78;;;31.30;99.40;;;;;;5031726;28;20355;-65
2023/08/30 11:57:18;;;;;;;61.55;34.80;;;31.20;99.80;;;;;;5029820;28;20024;-65
2023/08/30 11:59:44;;;;;;;66.72;35.95;;;31.10;99.90;;;;;;5031229;28;20014;-65
2023/08/30 12:02:14;;;;;;;49.88;31.85;;;31.10;99.90;;;;;;5033506;28;20021;-64
2023/08/30 12:04:41;;;;;;;82.10;51.17;;;31.10;99.90;;;;;;5033546;28;20057;-64
2023/08/30 12:07:08;;;;;;;38.80;23.98;;;31.10;99.90;;;;;;5033554;28;20363;-65
2023/08/30 12:09:36;;;;;;;42.78;25.10;;;31.10;99.90;;;;;;5024025;28;20033;-66
2023/08/30 12:12:11;;;;;;;49.75;25.92;;;31.00;99.90;;;;;;5023403;28;20368;-67
2023/08/30 12:14:38;;;;;;;43.78;22.85;;;31.00;99.90;;;;;;5033356;28;20021;-65
2023/08/30 12:17:08;;;;;;;36.35;20.30;;;31.00;99.90;;;;;;5033183;28;20280;-67
2023/08/30 12:19:34;;;;;;;36.20;21.92;;;31.00;99.90;;;;;;5033418;28;20021;-65
2023/08/30 12:22:05;;;;;;;49.28;27.05;;;30.90;99.90;;;;;;5032203;28;20391;-66
2023/08/30 12:24:42;;;;;;;36.60;24.95;;;30.90;99.90;;;;;;5033176;28;20024;-65
2023/08/30 12:27:09;;;;;;;33.60;22.38;;;30.90;99.90;;;;;;5032973;28;20017;-66
2023/08/30 12:29:36;;;;;;;36.42;20.90;;;30.90;99.90;;;;;;5033194;28;20022;-67
2023/08/30 12:32:02;;;;;;;30.85;20.05;;;30.80;99.90;;;;;;5024807;28;20025;-66
2023/08/30 12:34:29;;;;;;;35.63;21.00;;;30.70;99.90;;;;;;5030559;28;20025;-65
2023/08/30 12:36:55;;;;;;;33.05;19.30;;;30.70;99.90;;;;;;5033038;28;20033;-66
2023/08/30 12:39:22;;;;;;;35.63;21.90;;;30.70;99.90;;;;;;5033092;28;20502;-68
2023/08/30 12:41:49;;;;;;;42.50;22.55;;;30.70;99.90;;;;;;5030376;28;20030;-68
2023/08/30 12:44:15;;;;;;;45.03;26.35;;;30.50;99.90;;;;;;5032973;28;20045;-67
2023/08/30 12:46:42;;;;;;;40.67;25.92;;;30.50;99.90;;;;;;5031375;28;20053;-67
2023/08/30 12:49:08;;;;;;;43.15;26.55;;;30.50;99.90;;;;;;5033893;28;20101;-67
2023/08/30 12:51:35;;;;;;;55.75;28.60;;;30.50;99.90;;;;;;5019932;28;20113;-66
2023/08/30 12:54:01;;;;;;;49.92;28.70;;;30.40;99.90;;;;;;5024321;28;20457;-69
2023/08/30 12:56:28;;;;;;;44.95;29.02;;;30.40;99.90;;;;;;5025191;28;20032;-66
2023/08/30 12:58:55;;;;;;;91.13;55.88;;;30.30;99.90;;;;;;5021489;28;20053;-71
2023/08/30 13:01:22;;;;;;;66.55;40.63;;;30.30;99.90;;;;;;5023789;28;20372;-69
2023/08/30 13:03:49;;;;;;;56.08;33.30;;;30.30;99.90;;;;;;5030124;28;20026;-67